sensor_id;sensor_type;location;lat;lon;timestamp;pressure;altitude;pressure_sealevel;temperature;humidity
66381;BME280;53177;52.648;1.214;2023-02-27T00:00:07;102712.66;;;1.07;82.14
66381;BME280;53177;52.648;1.214;2023-02-27T00:02:41;102709.16;;;1.07;82.49
66381;BME280;53177;52.648;1.214;2023-02-27T00:05:06;102700.22;;;1.02;82.78
66381;BME280;53177;52.648;1.214;2023-02-27T00:07:32;102705.41;;;1.02;82.67
66381;BME280;53177;52.648;1.214;2023-02-27T00:09:57;102705.34;;;1.00;83.17
66381;BME280;53177;52.648;1.214;2023-02-27T00:12:22;102703.75;;;1.04;83.12
66381;BME280;53177;52.648;1.214;2023-02-27T00:14:48;102709.69;;;1.00;83.28
66381;BME280;53177;52.648;1.214;2023-02-27T00:17:15;102708.91;;;1.02;82.61
66381;BME280;53177;52.648;1.214;2023-02-27T00:19:40;102703.44;;;0.96;82.41
66381;BME280;53177;52.648;1.214;2023-02-27T00:22:06;102712.06;;;0.95;83.33
66381;BME280;53177;52.648;1.214;2023-02-27T00:24:31;102716.22;;;0.91;82.91
66381;BME280;53177;52.648;1.214;2023-02-27T00:26:57;102714.19;;;0.86;83.99
66381;BME280;53177;52.648;1.214;2023-02-27T00:29:22;102713.97;;;0.81;84.03
66381;BME280;53177;52.648;1.214;2023-02-27T00:31:47;102719.19;;;0.81;84.02
66381;BME280;53177;52.648;1.214;2023-02-27T00:34:13;102716.00;;;0.87;84.45
66381;BME280;53177;52.648;1.214;2023-02-27T00:36:39;102712.34;;;0.83;83.97
66381;BME280;53177;52.648;1.214;2023-02-27T00:39:05;102712.06;;;0.77;84.44
66381;BME280;53177;52.648;1.214;2023-02-27T00:41:30;102714.66;;;0.77;84.42
66381;BME280;53177;52.648;1.214;2023-02-27T00:43:56;102718.97;;;0.77;84.58
66381;BME280;53177;52.648;1.214;2023-02-27T00:46:21;102721.34;;;0.72;84.62
66381;BME280;53177;52.648;1.214;2023-02-27T00:48:47;102721.13;;;0.68;84.94
66381;BME280;53177;52.648;1.214;2023-02-27T00:51:12;102719.69;;;0.74;84.94
66381;BME280;53177;52.648;1.214;2023-02-27T00:53:38;102714.97;;;0.66;84.37
66381;BME280;53177;52.648;1.214;2023-02-27T00:56:03;102707.66;;;0.59;85.59
66381;BME280;53177;52.648;1.214;2023-02-27T00:58:29;102711.38;;;0.64;85.65
66381;BME280;53177;52.648;1.214;2023-02-27T01:00:54;102707.28;;;0.69;85.20
66381;BME280;53177;52.648;1.214;2023-02-27T01:03:19;102712.13;;;0.61;85.85
66381;BME280;53177;52.648;1.214;2023-02-27T01:05:45;102715.53;;;0.60;85.29
66381;BME280;53177;52.648;1.214;2023-02-27T01:08:10;102713.75;;;0.59;85.69
66381;BME280;53177;52.648;1.214;2023-02-27T01:10:36;102707.16;;;0.66;85.96
66381;BME280;53177;52.648;1.214;2023-02-27T01:13:01;102706.16;;;0.64;86.32
66381;BME280;53177;52.648;1.214;2023-02-27T01:15:26;102704.59;;;0.67;85.33
66381;BME280;53177;52.648;1.214;2023-02-27T01:17:52;102710.47;;;0.63;85.73
66381;BME280;53177;52.648;1.214;2023-02-27T01:20:18;102711.31;;;0.62;86.40
66381;BME280;53177;52.648;1.214;2023-02-27T01:22:44;102718.28;;;0.63;86.30
66381;BME280;53177;52.648;1.214;2023-02-27T01:25:09;102713.97;;;0.64;86.71
66381;BME280;53177;52.648;1.214;2023-02-27T01:27:35;102709.88;;;0.69;86.08
66381;BME280;53177;52.648;1.214;2023-02-27T01:30:00;102708.72;;;0.62;86.35
66381;BME280;53177;52.648;1.214;2023-02-27T01:32:26;102708.47;;;0.58;86.60
66381;BME280;53177;52.648;1.214;2023-02-27T01:34:51;102710.94;;;0.55;85.76
66381;BME280;53177;52.648;1.214;2023-02-27T01:37:17;102709.28;;;0.57;85.80
66381;BME280;53177;52.648;1.214;2023-02-27T01:39:42;102702.50;;;0.60;85.45
66381;BME280;53177;52.648;1.214;2023-02-27T01:42:21;102710.44;;;0.45;85.69
66381;BME280;53177;52.648;1.214;2023-02-27T01:47:31;102703.25;;;0.40;86.09
66381;BME280;53177;52.648;1.214;2023-02-27T01:49:56;102701.59;;;0.42;87.59
66381;BME280;53177;52.648;1.214;2023-02-27T01:52:22;102705.00;;;0.41;87.55
66381;BME280;53177;52.648;1.214;2023-02-27T01:54:47;102696.50;;;0.43;87.97
66381;BME280;53177;52.648;1.214;2023-02-27T01:57:13;102699.91;;;0.42;87.59
66381;BME280;53177;52.648;1.214;2023-02-27T01:59:40;102704.19;;;0.42;87.47
66381;BME280;53177;52.648;1.214;2023-02-27T02:02:12;102692.91;;;0.41;87.49
66381;BME280;53177;52.648;1.214;2023-02-27T02:04:39;102698.09;;;0.41;88.30
66381;BME280;53177;52.648;1.214;2023-02-27T02:07:11;102699.47;;;0.51;88.53
66381;BME280;53177;52.648;1.214;2023-02-27T02:09:42;102706.63;;;0.55;88.25
66381;BME280;53177;52.648;1.214;2023-02-27T02:12:12;102695.53;;;0.59;88.47
66381;BME280;53177;52.648;1.214;2023-02-27T02:14:38;102697.53;;;0.65;88.72
66381;BME280;53177;52.648;1.214;2023-02-27T02:22:52;102692.63;;;0.71;88.08
66381;BME280;53177;52.648;1.214;2023-02-27T02:34:14;102684.47;;;0.81;88.71
66381;BME280;53177;52.648;1.214;2023-02-27T02:37:30;102686.41;;;0.85;88.97
66381;BME280;53177;52.648;1.214;2023-02-27T02:40:15;102685.78;;;0.90;88.49
66381;BME280;53177;52.648;1.214;2023-02-27T02:48:45;102678.63;;;1.04;88.50
66381;BME280;53177;52.648;1.214;2023-02-27T02:51:39;102682.34;;;1.09;87.55
66381;BME280;53177;52.648;1.214;2023-02-27T02:54:19;102677.94;;;1.08;87.39
66381;BME280;53177;52.648;1.214;2023-02-27T02:56:55;102680.53;;;1.08;87.43
66381;BME280;53177;52.648;1.214;2023-02-27T02:59:30;102668.63;;;1.13;88.27
66381;BME280;53177;52.648;1.214;2023-02-27T03:02:03;102677.56;;;1.18;87.94
66381;BME280;53177;52.648;1.214;2023-02-27T03:04:36;102680.31;;;1.21;87.40
66381;BME280;53177;52.648;1.214;2023-02-27T03:07:29;102688.28;;;1.24;87.47
66381;BME280;53177;52.648;1.214;2023-02-27T03:10:17;102678.88;;;1.28;87.83
66381;BME280;53177;52.648;1.214;2023-02-27T03:12:48;102679.03;;;1.31;87.71
66381;BME280;53177;52.648;1.214;2023-02-27T03:15:20;102679.03;;;1.31;87.71
66381;BME280;53177;52.648;1.214;2023-02-27T03:18:17;102672.00;;;1.30;87.33
66381;BME280;53177;52.648;1.214;2023-02-27T03:20:54;102670.25;;;1.29;87.26
66381;BME280;53177;52.648;1.214;2023-02-27T03:23:33;102676.19;;;1.26;87.33
66381;BME280;53177;52.648;1.214;2023-02-27T03:26:01;102669.28;;;1.27;87.57
66381;BME280;53177;52.648;1.214;2023-02-27T03:28:30;102676.28;;;1.28;88.03
66381;BME280;53177;52.648;1.214;2023-02-27T03:31:05;102660.72;;;1.29;87.78
66381;BME280;53177;52.648;1.214;2023-02-27T03:33:41;102669.63;;;1.34;88.14
66381;BME280;53177;52.648;1.214;2023-02-27T03:44:56;102657.22;;;1.48;88.49
66381;BME280;53177;52.648;1.214;2023-02-27T03:47:25;102663.41;;;1.50;87.72
66381;BME280;53177;52.648;1.214;2023-02-27T03:49:50;102660.78;;;1.50;87.98
66381;BME280;53177;52.648;1.214;2023-02-27T03:52:20;102671.13;;;1.48;88.58
66381;BME280;53177;52.648;1.214;2023-02-27T03:54:52;102665.94;;;1.48;88.61
66381;BME280;53177;52.648;1.214;2023-02-27T03:57:19;102671.28;;;1.52;88.72
66381;BME280;53177;52.648;1.214;2023-02-27T03:59:44;102678.41;;;1.56;88.47
66381;BME280;53177;52.648;1.214;2023-02-27T04:02:10;102672.47;;;1.58;88.92
66381;BME280;53177;52.648;1.214;2023-02-27T04:04:36;102677.69;;;1.58;88.74
66381;BME280;53177;52.648;1.214;2023-02-27T04:10:20;102683.03;;;1.61;88.84
66381;BME280;53177;52.648;1.214;2023-02-27T04:19:06;102677.34;;;1.70;89.35
66381;BME280;53177;52.648;1.214;2023-02-27T04:27:16;102681.03;;;1.75;89.61
66381;BME280;53177;52.648;1.214;2023-02-27T04:29:58;102676.72;;;1.75;89.58
66381;BME280;53177;52.648;1.214;2023-02-27T04:32:29;102682.81;;;1.76;89.76
66381;BME280;53177;52.648;1.214;2023-02-27T04:34:59;102682.81;;;1.76;90.14
66381;BME280;53177;52.648;1.214;2023-02-27T04:37:36;102687.81;;;1.71;90.03
66381;BME280;53177;52.648;1.214;2023-02-27T04:40:09;102690.38;;;1.70;90.29
66381;BME280;53177;52.648;1.214;2023-02-27T04:42:43;102690.50;;;1.73;90.54
66381;BME280;53177;52.648;1.214;2023-02-27T04:45:12;102695.22;;;1.81;91.32
66381;BME280;53177;52.648;1.214;2023-02-27T04:47:53;102692.69;;;1.83;91.33
66381;BME280;53177;52.648;1.214;2023-02-27T04:50:26;102697.91;;;1.83;91.48
66381;BME280;53177;52.648;1.214;2023-02-27T04:53:00;102703.94;;;1.82;90.92
66381;BME280;53177;52.648;1.214;2023-02-27T04:55:32;102701.34;;;1.82;91.46
66381;BME280;53177;52.648;1.214;2023-02-27T04:58:12;102698.13;;;1.87;92.13
66381;BME280;53177;52.648;1.214;2023-02-27T05:00:40;102707.03;;;1.92;92.35
66381;BME280;53177;52.648;1.214;2023-02-27T05:03:24;102704.75;;;2.00;92.27
66381;BME280;53177;52.648;1.214;2023-02-27T05:05:53;102702.16;;;2.00;92.29
66381;BME280;53177;52.648;1.214;2023-02-27T05:08:28;102700.44;;;2.01;92.64
66381;BME280;53177;52.648;1.214;2023-02-27T05:11:04;102703.50;;;2.11;92.72
66381;BME280;53177;52.648;1.214;2023-02-27T05:13:45;102705.97;;;2.08;92.77
66381;BME280;53177;52.648;1.214;2023-02-27T05:16:20;102712.09;;;2.09;93.19
66381;BME280;53177;52.648;1.214;2023-02-27T05:18:47;102713.81;;;2.08;92.91
66381;BME280;53177;52.648;1.214;2023-02-27T05:21:39;102702.69;;;2.12;93.45
66381;BME280;53177;52.648;1.214;2023-02-27T05:27:07;102701.34;;;2.22;94.00
66381;BME280;53177;52.648;1.214;2023-02-27T05:29:52;102703.34;;;2.27;94.25
66381;BME280;53177;52.648;1.214;2023-02-27T05:32:32;102700.88;;;2.30;94.01
66381;BME280;53177;52.648;1.214;2023-02-27T05:35:06;102694.69;;;2.28;93.74
66381;BME280;53177;52.648;1.214;2023-02-27T05:37:39;102708.56;;;2.27;93.73
66381;BME280;53177;52.648;1.214;2023-02-27T05:40:08;102707.22;;;2.16;92.97
66381;BME280;53177;52.648;1.214;2023-02-27T05:42:39;102708.81;;;2.13;93.79
66381;BME280;53177;52.648;1.214;2023-02-27T05:45:09;102703.50;;;2.11;93.57
66381;BME280;53177;52.648;1.214;2023-02-27T05:47:39;102705.09;;;2.08;93.88
66381;BME280;53177;52.648;1.214;2023-02-27T05:50:10;102715.75;;;2.12;94.22
66381;BME280;53177;52.648;1.214;2023-02-27T05:52:39;102715.66;;;2.11;94.42
66381;BME280;53177;52.648;1.214;2023-02-27T05:57:50;102710.78;;;2.18;94.74
66381;BME280;53177;52.648;1.214;2023-02-27T06:00:38;102710.28;;;2.27;94.89
66381;BME280;53177;52.648;1.214;2023-02-27T06:03:05;102710.38;;;2.28;94.92
66381;BME280;53177;52.648;1.214;2023-02-27T06:05:31;102715.75;;;2.33;95.81
66381;BME280;53177;52.648;1.214;2023-02-27T06:07:56;102716.84;;;2.38;96.21
66381;BME280;53177;52.648;1.214;2023-02-27T06:10:22;102718.97;;;2.47;96.74
66381;BME280;53177;52.648;1.214;2023-02-27T06:12:48;102720.88;;;2.51;97.08
66381;BME280;53177;52.648;1.214;2023-02-27T06:15:14;102709.66;;;2.53;97.11
66381;BME280;53177;52.648;1.214;2023-02-27T06:17:39;102719.22;;;2.53;97.54
66381;BME280;53177;52.648;1.214;2023-02-27T06:20:07;102717.09;;;2.44;97.27
66381;BME280;53177;52.648;1.214;2023-02-27T06:22:37;102714.13;;;2.35;97.90
66381;BME280;53177;52.648;1.214;2023-02-27T06:25:09;102713.88;;;2.29;97.99
66381;BME280;53177;52.648;1.214;2023-02-27T06:27:40;102718.19;;;2.28;98.57
66381;BME280;53177;52.648;1.214;2023-02-27T06:30:09;102709.50;;;2.29;98.71
66381;BME280;53177;52.648;1.214;2023-02-27T06:32:40;102727.88;;;2.31;99.10
66381;BME280;53177;52.648;1.214;2023-02-27T06:35:18;102727.16;;;2.35;99.47
66381;BME280;53177;52.648;1.214;2023-02-27T06:37:50;102733.28;;;2.35;99.65
66381;BME280;53177;52.648;1.214;2023-02-27T06:40:17;102734.19;;;2.36;99.81
66381;BME280;53177;52.648;1.214;2023-02-27T06:42:43;102733.34;;;2.37;100.00
66381;BME280;53177;52.648;1.214;2023-02-27T06:45:11;102734.31;;;2.39;100.00
66381;BME280;53177;52.648;1.214;2023-02-27T06:47:37;102740.44;;;2.39;100.00
66381;BME280;53177;52.648;1.214;2023-02-27T06:50:10;102742.16;;;2.39;100.00
66381;BME280;53177;52.648;1.214;2023-02-27T06:52:40;102750.88;;;2.39;100.00
66381;BME280;53177;52.648;1.214;2023-02-27T06:55:09;102749.28;;;2.43;100.00
66381;BME280;53177;52.648;1.214;2023-02-27T06:57:36;102739.78;;;2.45;100.00
66381;BME280;53177;52.648;1.214;2023-02-27T07:00:04;102745.97;;;2.47;100.00
66381;BME280;53177;52.648;1.214;2023-02-27T07:02:31;102747.69;;;2.47;100.00
66381;BME280;53177;52.648;1.214;2023-02-27T07:04:56;102744.31;;;2.49;100.00
66381;BME280;53177;52.648;1.214;2023-02-27T07:07:22;102750.44;;;2.50;100.00
66381;BME280;53177;52.648;1.214;2023-02-27T07:09:47;102761.91;;;2.53;100.00
66381;BME280;53177;52.648;1.214;2023-02-27T07:12:13;102761.31;;;2.60;100.00
66381;BME280;53177;52.648;1.214;2023-02-27T07:14:38;102759.69;;;2.62;100.00
66381;BME280;53177;52.648;1.214;2023-02-27T07:17:04;102758.91;;;2.65;100.00
66381;BME280;53177;52.648;1.214;2023-02-27T07:19:30;102758.22;;;2.69;100.00
66381;BME280;53177;52.648;1.214;2023-02-27T07:21:56;102765.47;;;2.76;100.00
66381;BME280;53177;52.648;1.214;2023-02-27T07:24:22;102754.47;;;2.83;100.00
66381;BME280;53177;52.648;1.214;2023-02-27T07:26:47;102766.69;;;2.84;100.00
66381;BME280;53177;52.648;1.214;2023-02-27T07:29:12;102771.16;;;2.86;100.00
66381;BME280;53177;52.648;1.214;2023-02-27T07:31:39;102762.41;;;2.86;100.00
66381;BME280;53177;52.648;1.214;2023-02-27T07:34:04;102761.63;;;2.88;100.00
66381;BME280;53177;52.648;1.214;2023-02-27T07:36:30;102768.72;;;2.91;100.00
66381;BME280;53177;52.648;1.214;2023-02-27T07:38:55;102771.47;;;2.94;100.00
66381;BME280;53177;52.648;1.214;2023-02-27T07:41:22;102770.69;;;2.97;100.00
66381;BME280;53177;52.648;1.214;2023-02-27T07:43:47;102767.25;;;2.98;100.00
66381;BME280;53177;52.648;1.214;2023-02-27T07:46:13;102769.16;;;3.02;100.00
66381;BME280;53177;52.648;1.214;2023-02-27T07:48:38;102769.28;;;3.05;100.00
66381;BME280;53177;52.648;1.214;2023-02-27T07:51:04;102771.13;;;3.07;100.00
66381;BME280;53177;52.648;1.214;2023-02-27T07:53:30;102768.69;;;3.12;100.00
66381;BME280;53177;52.648;1.214;2023-02-27T07:55:55;102769.59;;;3.12;100.00
66381;BME280;53177;52.648;1.214;2023-02-27T07:58:21;102766.28;;;3.16;100.00
66381;BME280;53177;52.648;1.214;2023-02-27T08:00:46;102764.59;;;3.18;100.00
66381;BME280;53177;52.648;1.214;2023-02-27T08:03:11;102770.84;;;3.22;100.00
66381;BME280;53177;52.648;1.214;2023-02-27T08:05:37;102768.38;;;3.25;100.00
66381;BME280;53177;52.648;1.214;2023-02-27T08:08:03;102770.41;;;3.32;100.00
66381;BME280;53177;52.648;1.214;2023-02-27T08:10:30;102768.91;;;3.38;100.00
66381;BME280;53177;52.648;1.214;2023-02-27T08:12:55;102770.03;;;3.45;100.00
66381;BME280;53177;52.648;1.214;2023-02-27T08:15:20;102780.63;;;3.48;100.00
66381;BME280;53177;52.648;1.214;2023-02-27T08:17:46;102790.34;;;3.51;100.00
66381;BME280;53177;52.648;1.214;2023-02-27T08:20:13;102786.16;;;3.56;100.00
66381;BME280;53177;52.648;1.214;2023-02-27T08:22:40;102801.09;;;3.58;100.00
66381;BME280;53177;52.648;1.214;2023-02-27T08:25:07;102795.91;;;3.60;100.00
66381;BME280;53177;52.648;1.214;2023-02-27T08:27:34;102804.84;;;3.65;100.00
66381;BME280;53177;52.648;1.214;2023-02-27T08:30:00;102804.00;;;3.66;100.00
66381;BME280;53177;52.648;1.214;2023-02-27T08:32:25;102806.88;;;3.73;100.00
66381;BME280;53177;52.648;1.214;2023-02-27T08:34:51;102807.84;;;3.75;100.00
66381;BME280;53177;52.648;1.214;2023-02-27T08:37:16;102801.72;;;3.75;100.00
66381;BME280;53177;52.648;1.214;2023-02-27T08:39:42;102814.00;;;3.76;100.00
66381;BME280;53177;52.648;1.214;2023-02-27T08:42:08;102806.25;;;3.79;100.00
66381;BME280;53177;52.648;1.214;2023-02-27T08:44:34;102814.28;;;3.83;100.00
66381;BME280;53177;52.648;1.214;2023-02-27T08:46:59;102811.72;;;3.85;100.00
66381;BME280;53177;52.648;1.214;2023-02-27T08:49:24;102801.19;;;3.83;100.00
66381;BME280;53177;52.648;1.214;2023-02-27T08:51:51;102814.16;;;3.80;99.74
66381;BME280;53177;52.648;1.214;2023-02-27T08:54:17;102817.78;;;3.84;99.70
66381;BME280;53177;52.648;1.214;2023-02-27T08:56:43;102807.72;;;3.95;100.00
66381;BME280;53177;52.648;1.214;2023-02-27T08:59:09;102814.09;;;4.01;100.00
66381;BME280;53177;52.648;1.214;2023-02-27T09:01:35;102811.38;;;4.00;99.71
66381;BME280;53177;52.648;1.214;2023-02-27T09:04:04;102810.50;;;3.99;99.53
66381;BME280;53177;52.648;1.214;2023-02-27T09:06:30;102816.63;;;4.00;99.08
66381;BME280;53177;52.648;1.214;2023-02-27T09:08:57;102816.03;;;4.07;99.42
66381;BME280;53177;52.648;1.214;2023-02-27T09:11:22;102817.16;;;4.13;99.66
66381;BME280;53177;52.648;1.214;2023-02-27T09:13:48;102821.72;;;4.19;99.34
66381;BME280;53177;52.648;1.214;2023-02-27T09:16:18;102816.25;;;4.36;99.68
66381;BME280;53177;52.648;1.214;2023-02-27T09:18:44;102816.81;;;4.52;99.56
66381;BME280;53177;52.648;1.214;2023-02-27T09:21:09;102825.28;;;4.45;99.07
66381;BME280;53177;52.648;1.214;2023-02-27T09:23:35;102820.63;;;4.36;98.53
66381;BME280;53177;52.648;1.214;2023-02-27T09:26:00;102824.84;;;4.32;98.34
66381;BME280;53177;52.648;1.214;2023-02-27T09:28:26;102818.88;;;4.36;98.25
66381;BME280;53177;52.648;1.214;2023-02-27T09:30:51;102820.00;;;4.43;98.09
66381;BME280;53177;52.648;1.214;2023-02-27T09:33:17;102818.25;;;4.43;98.30
66381;BME280;53177;52.648;1.214;2023-02-27T09:35:42;102826.25;;;4.47;97.84
66381;BME280;53177;52.648;1.214;2023-02-27T09:38:07;102823.78;;;4.51;97.10
66381;BME280;53177;52.648;1.214;2023-02-27T09:40:38;102827.47;;;4.56;96.26
66381;BME280;53177;52.648;1.214;2023-02-27T09:45:59;102820.97;;;4.70;94.26
66381;BME280;53177;52.648;1.214;2023-02-27T09:50:51;102839.19;;;4.91;93.52
66381;BME280;53177;52.648;1.214;2023-02-27T09:53:39;102837.69;;;4.99;93.14
66381;BME280;53177;52.648;1.214;2023-02-27T09:56:20;102839.66;;;5.05;91.96
66381;BME280;53177;52.648;1.214;2023-02-27T10:01:39;102843.81;;;5.25;91.25
66381;BME280;53177;52.648;1.214;2023-02-27T10:09:55;102833.00;;;5.69;89.32
66381;BME280;53177;52.648;1.214;2023-02-27T10:15:00;102842.50;;;5.91;87.47
66381;BME280;53177;52.648;1.214;2023-02-27T10:17:35;102842.44;;;5.90;86.86
66381;BME280;53177;52.648;1.214;2023-02-27T10:20:07;102839.16;;;5.97;87.21
66381;BME280;53177;52.648;1.214;2023-02-27T10:22:37;102850.03;;;6.09;87.04
66381;BME280;53177;52.648;1.214;2023-02-27T10:25:11;102852.44;;;6.03;88.40
66381;BME280;53177;52.648;1.214;2023-02-27T10:27:38;102849.97;;;5.80;86.98
66381;BME280;53177;52.648;1.214;2023-02-27T10:30:15;102851.16;;;5.88;87.82
66381;BME280;53177;52.648;1.214;2023-02-27T10:32:42;102855.34;;;5.83;88.63
66381;BME280;53177;52.648;1.214;2023-02-27T10:35:16;102846.19;;;5.71;87.43
66381;BME280;53177;52.648;1.214;2023-02-27T10:37:58;102856.78;;;5.47;87.46
66381;BME280;53177;52.648;1.214;2023-02-27T10:40:25;102859.31;;;5.44;87.76
66381;BME280;53177;52.648;1.214;2023-02-27T10:42:52;102854.03;;;5.43;88.88
66381;BME280;53177;52.648;1.214;2023-02-27T10:45:19;102852.81;;;5.31;84.85
66381;BME280;53177;52.648;1.214;2023-02-27T10:47:44;102857.09;;;5.29;83.55
66381;BME280;53177;52.648;1.214;2023-02-27T10:50:31;102857.34;;;5.37;84.46
66381;BME280;53177;52.648;1.214;2023-02-27T10:53:01;102854.81;;;5.40;82.69
66381;BME280;53177;52.648;1.214;2023-02-27T10:55:30;102849.72;;;5.45;82.64
66381;BME280;53177;52.648;1.214;2023-02-27T10:57:57;102856.94;;;5.52;83.39
66381;BME280;53177;52.648;1.214;2023-02-27T11:02:55;102853.84;;;5.92;80.95
66381;BME280;53177;52.648;1.214;2023-02-27T11:05:30;102848.84;;;5.99;80.41
66381;BME280;53177;52.648;1.214;2023-02-27T11:08:10;102856.78;;;6.01;80.72
66381;BME280;53177;52.648;1.214;2023-02-27T11:10:52;102838.72;;;6.11;80.05
66381;BME280;53177;52.648;1.214;2023-02-27T11:13:19;102846.19;;;6.27;80.12
66381;BME280;53177;52.648;1.214;2023-02-27T11:18:29;102853.06;;;6.22;80.83
66381;BME280;53177;52.648;1.214;2023-02-27T11:26:21;102848.22;;;5.79;82.51
66381;BME280;53177;52.648;1.214;2023-02-27T11:31:27;102842.72;;;5.72;84.40
66381;BME280;53177;52.648;1.214;2023-02-27T11:33:55;102847.19;;;5.74;83.69
66381;BME280;53177;52.648;1.214;2023-02-27T11:36:22;102845.13;;;5.91;82.92
66381;BME280;53177;52.648;1.214;2023-02-27T11:39:02;102850.03;;;6.39;84.13
66381;BME280;53177;52.648;1.214;2023-02-27T11:41:34;102843.84;;;6.68;80.27
66381;BME280;53177;52.648;1.214;2023-02-27T11:44:01;102840.34;;;6.69;80.50
66381;BME280;53177;52.648;1.214;2023-02-27T11:46:27;102833.66;;;6.49;79.37
66381;BME280;53177;52.648;1.214;2023-02-27T11:49:06;102839.53;;;6.39;79.66
66381;BME280;53177;52.648;1.214;2023-02-27T11:54:36;102837.34;;;5.96;80.73
66381;BME280;53177;52.648;1.214;2023-02-27T11:57:19;102837.84;;;5.84;79.79
66381;BME280;53177;52.648;1.214;2023-02-27T12:00:22;102836.28;;;5.89;79.84
66381;BME280;53177;52.648;1.214;2023-02-27T12:02:57;102833.81;;;5.94;78.01
66381;BME280;53177;52.648;1.214;2023-02-27T12:05:27;102840.22;;;6.03;77.86
66381;BME280;53177;52.648;1.214;2023-02-27T12:10:30;102825.41;;;6.05;74.90
66381;BME280;53177;52.648;1.214;2023-02-27T12:13:01;102839.00;;;6.20;76.12
66381;BME280;53177;52.648;1.214;2023-02-27T12:18:05;102834.03;;;6.62;73.95
66381;BME280;53177;52.648;1.214;2023-02-27T12:23:04;102836.44;;;6.86;74.62
66381;BME280;53177;52.648;1.214;2023-02-27T12:31:11;102835.69;;;6.59;73.47
66381;BME280;53177;52.648;1.214;2023-02-27T12:33:54;102830.13;;;6.48;73.76
66381;BME280;53177;52.648;1.214;2023-02-27T12:36:20;102829.81;;;6.69;74.25
66381;BME280;53177;52.648;1.214;2023-02-27T12:38:46;102836.38;;;6.83;72.89
66381;BME280;53177;52.648;1.214;2023-02-27T12:46:47;102824.97;;;6.84;73.44
66381;BME280;53177;52.648;1.214;2023-02-27T12:49:23;102821.91;;;7.00;72.64
66381;BME280;53177;52.648;1.214;2023-02-27T12:52:03;102809.03;;;7.11;71.25
66381;BME280;53177;52.648;1.214;2023-02-27T13:11:06;102800.13;;;7.79;64.09
66381;BME280;53177;52.648;1.214;2023-02-27T13:13:39;102804.28;;;8.10;66.27
66381;BME280;53177;52.648;1.214;2023-02-27T13:16:14;102790.72;;;8.32;64.60
66381;BME280;53177;52.648;1.214;2023-02-27T13:18:46;102794.06;;;8.23;65.11
66381;BME280;53177;52.648;1.214;2023-02-27T13:21:35;102799.28;;;8.22;65.21
66381;BME280;53177;52.648;1.214;2023-02-27T13:27:01;102793.16;;;8.24;64.95
66381;BME280;53177;52.648;1.214;2023-02-27T13:29:50;102788.69;;;8.19;66.12
66381;BME280;53177;52.648;1.214;2023-02-27T13:35:27;102795.91;;;7.48;67.93
66381;BME280;53177;52.648;1.214;2023-02-27T13:38:00;102793.34;;;7.15;67.93
66381;BME280;53177;52.648;1.214;2023-02-27T13:40:35;102804.28;;;6.96;70.32
66381;BME280;53177;52.648;1.214;2023-02-27T13:43:03;102810.16;;;6.88;72.16
66381;BME280;53177;52.648;1.214;2023-02-27T13:45:47;102806.91;;;6.96;72.59
66381;BME280;53177;52.648;1.214;2023-02-27T13:48:35;102813.66;;;7.21;74.47
66381;BME280;53177;52.648;1.214;2023-02-27T13:51:01;102801.69;;;6.98;69.76
66381;BME280;53177;52.648;1.214;2023-02-27T13:53:27;102808.22;;;6.79;70.31
66381;BME280;53177;52.648;1.214;2023-02-27T13:56:16;102802.91;;;6.77;71.52
66381;BME280;53177;52.648;1.214;2023-02-27T13:58:43;102802.63;;;6.67;71.39
66381;BME280;53177;52.648;1.214;2023-02-27T14:01:15;102801.66;;;6.63;71.09
66381;BME280;53177;52.648;1.214;2023-02-27T14:03:41;102792.72;;;6.91;71.01
66381;BME280;53177;52.648;1.214;2023-02-27T14:06:09;102789.19;;;7.23;68.90
66381;BME280;53177;52.648;1.214;2023-02-27T14:08:46;102791.66;;;7.53;68.82
66381;BME280;53177;52.648;1.214;2023-02-27T14:11:25;102789.75;;;7.48;69.53
66381;BME280;53177;52.648;1.214;2023-02-27T14:22:20;102804.00;;;6.85;71.37
66381;BME280;53177;52.648;1.214;2023-02-27T14:24:59;102802.06;;;7.13;67.29
66381;BME280;53177;52.648;1.214;2023-02-27T14:27:45;102793.16;;;7.44;67.43
66381;BME280;53177;52.648;1.214;2023-02-27T14:30:37;102798.88;;;7.63;67.42
66381;BME280;53177;52.648;1.214;2023-02-27T14:33:26;102798.09;;;7.67;67.13
66381;BME280;53177;52.648;1.214;2023-02-27T14:35:58;102796.56;;;7.38;64.10
66381;BME280;53177;52.648;1.214;2023-02-27T14:38:25;102786.63;;;6.92;64.79
66381;BME280;53177;52.648;1.214;2023-02-27T14:43:56;102809.13;;;6.81;67.01
66381;BME280;53177;52.648;1.214;2023-02-27T14:46:31;102797.19;;;6.94;66.17
66381;BME280;53177;52.648;1.214;2023-02-27T14:49:04;102800.47;;;7.19;66.04
66381;BME280;53177;52.648;1.214;2023-02-27T14:51:32;102797.13;;;7.26;65.50
66381;BME280;53177;52.648;1.214;2023-02-27T14:56:29;102792.53;;;7.54;65.12
66381;BME280;53177;52.648;1.214;2023-02-27T14:58:54;102791.53;;;7.49;64.00
66381;BME280;53177;52.648;1.214;2023-02-27T15:01:21;102787.97;;;7.11;63.36
66381;BME280;53177;52.648;1.214;2023-02-27T15:03:51;102802.88;;;7.10;64.53
66381;BME280;53177;52.648;1.214;2023-02-27T15:06:40;102788.63;;;7.02;63.71
66381;BME280;53177;52.648;1.214;2023-02-27T15:09:07;102790.69;;;7.14;67.88
66381;BME280;53177;52.648;1.214;2023-02-27T15:11:33;102788.16;;;7.18;64.50
66381;BME280;53177;52.648;1.214;2023-02-27T15:14:04;102784.66;;;7.18;63.64
66381;BME280;53177;52.648;1.214;2023-02-27T15:16:39;102784.91;;;7.28;64.95
66381;BME280;53177;52.648;1.214;2023-02-27T15:19:12;102778.84;;;7.32;65.05
66381;BME280;53177;52.648;1.214;2023-02-27T15:21:49;102782.97;;;7.21;62.64
66381;BME280;53177;52.648;1.214;2023-02-27T15:24:28;102779.31;;;7.15;63.50
66381;BME280;53177;52.648;1.214;2023-02-27T15:27:01;102784.19;;;7.00;63.21
66381;BME280;53177;52.648;1.214;2023-02-27T15:29:47;102778.03;;;6.98;63.29
66381;BME280;53177;52.648;1.214;2023-02-27T15:32:33;102779.41;;;6.83;63.51
66381;BME280;53177;52.648;1.214;2023-02-27T15:35:03;102782.88;;;6.82;64.32